Time;durP1;ratioP1;P1;durP2;ratioP2;P2;SDS_P1;SDS_P2;PMS_P1;PMS_P2;Temp;Humidity;BMP_temperature;BMP_pressure;BME280_temperature;BME280_humidity;BME280_pressure;Samples;Min_cycle;Max_cycle;Signal;HPM_P1;HPM_P2
2023/04/27 00:00:12;;;;;;;0.52;0.52;;;;;;;7.56;58.68;96918.19;29395;205;63008;-56
2023/04/27 00:00:43;;;;;;;0.50;0.50;;;;;;;7.55;58.48;96921.97;29395;218;63004;-56
2023/04/27 00:01:15;;;;;;;0.50;0.50;;;;;;;7.56;58.75;96920.88;29395;203;63009;-57
2023/04/27 00:01:47;;;;;;;0.50;0.50;;;;;;;7.55;58.79;96908.47;29394;221;64009;-55
2023/04/27 00:02:18;;;;;;;0.50;0.50;;;;;;;7.55;59.18;96919.25;29395;227;63009;-55
2023/04/27 00:02:53;;;;;;;0.50;0.50;;;;;;;7.54;58.96;96914.94;29395;216;63005;-54
2023/04/27 00:03:24;;;;;;;0.50;0.50;;;;;;;7.54;59.04;96920.34;29395;208;63009;-55
2023/04/27 00:03:57;;;;;;;0.50;0.50;;;;;;;7.54;59.17;96917.62;29394;242;64009;-56
2023/04/27 00:04:29;;;;;;;0.50;0.50;;;;;;;7.54;59.15;96917.62;29395;203;63009;-55
2023/04/27 00:05:01;;;;;;;0.50;0.50;;;;;;;7.53;59.18;96922.22;29395;209;63004;-55
2023/04/27 00:05:37;;;;;;;0.50;0.50;;;;;;;7.52;59.30;96919.81;29395;232;63009;-55
2023/04/27 00:06:09;;;;;;;0.50;0.50;;;;;;;7.52;59.20;96920.59;29395;246;63014;-54
2023/04/27 00:06:40;;;;;;;0.50;0.50;;;;;;;7.52;59.19;96909.00;29395;212;63008;-54
2023/04/27 00:07:11;;;;;;;0.50;0.50;;;;;;;7.51;59.63;96920.88;29395;228;63004;-55
2023/04/27 00:07:42;;;;;;;0.50;0.50;;;;;;;7.51;59.45;96918.19;29395;269;63026;-55
2023/04/27 00:08:13;;;;;;;0.50;0.50;;;;;;;7.51;59.54;96912.78;29394;222;64009;-55
2023/04/27 00:08:45;;;;;;;0.50;0.50;;;;;;;7.51;59.52;96907.37;29395;232;63009;-55
2023/04/27 00:09:16;;;;;;;0.50;0.50;;;;;;;7.51;59.39;96915.47;29395;198;63005;-60
2023/04/27 00:09:47;;;;;;;0.50;0.50;;;;;;;7.51;59.49;96915.47;29395;224;63009;-58
2023/04/27 00:10:19;;;;;;;0.50;0.50;;;;;;;7.50;59.43;96916.56;29395;256;63005;-54
2023/04/27 00:10:50;;;;;;;0.50;0.50;;;;;;;7.50;59.57;96911.16;29395;208;63009;-54
2023/04/27 00:11:21;;;;;;;0.50;0.50;;;;;;;7.50;59.61;96913.87;29394;290;64009;-56
2023/04/27 00:11:52;;;;;;;0.50;0.50;;;;;;;7.50;59.54;96911.16;29395;205;63009;-55
2023/04/27 00:12:24;;;;;;;0.50;0.50;;;;;;;7.50;59.35;96911.16;29395;212;63004;-55
2023/04/27 00:12:56;;;;;;;0.50;0.50;;;;;;;7.50;59.46;96905.75;29395;216;63009;-55
2023/04/27 00:13:27;;;;;;;0.50;0.50;;;;;;;7.49;59.50;96910.34;29395;208;63004;-55
2023/04/27 00:14:01;;;;;;;0.50;0.50;;;;;;;7.50;59.26;96906.56;29395;202;63016;-55
2023/04/27 00:14:36;;;;;;;0.50;0.50;;;;;;;7.51;59.53;96912.78;29395;283;63004;-54
2023/04/27 00:15:09;;;;;;;0.50;0.50;;;;;;;7.49;59.43;96909.53;29395;197;63009;-55
2023/04/27 00:15:40;;;;;;;0.40;0.40;;;;;;;7.49;59.45;96904.16;29395;228;63005;-55
2023/04/27 00:16:11;;;;;;;0.50;0.50;;;;;;;7.48;59.27;96905.22;29395;203;63009;-54
2023/04/27 00:16:46;;;;;;;0.50;0.50;;;;;;;7.48;59.55;96913.31;29394;238;64009;-55
2023/04/27 00:17:20;;;;;;;0.50;0.50;;;;;;;7.48;59.60;96907.94;29395;197;63009;-55
2023/04/27 00:17:51;;;;;;;0.50;0.50;;;;;;;7.48;59.71;96907.94;29395;240;63000;-54
2023/04/27 00:18:22;;;;;;;0.50;0.50;;;;;;;7.48;59.54;96907.94;29394;252;64009;-54
2023/04/27 00:18:54;;;;;;;0.50;0.50;;;;;;;7.48;59.74;96905.22;29395;233;63005;-55
2023/04/27 00:19:27;;;;;;;0.50;0.50;;;;;;;7.48;59.87;96902.53;29395;205;63009;-53
2023/04/27 00:19:59;;;;;;;0.50;0.50;;;;;;;7.48;59.92;96911.44;29395;206;63004;-60
2023/04/27 00:20:30;;;;;;;0.50;0.50;;;;;;;7.48;59.68;96902.53;29395;203;63024;-54
2023/04/27 00:21:03;;;;;;;0.50;0.50;;;;;;;7.49;59.77;96909.53;29395;245;63004;-55
2023/04/27 00:21:34;;;;;;;0.50;0.50;;;;;;;7.48;59.83;96907.94;29395;304;63009;-55
2023/04/27 00:22:06;;;;;;;0.50;0.50;;;;;;;7.48;59.78;96910.62;29394;275;64008;-55
2023/04/27 00:22:39;;;;;;;0.50;0.50;;;;;;;7.48;59.78;96907.94;29394;225;64014;-55
2023/04/27 00:23:10;;;;;;;0.50;0.50;;;;;;;7.47;59.83;96906.31;29395;249;63005;-55
2023/04/27 00:23:41;;;;;;;0.50;0.50;;;;;;;7.49;59.88;96909.53;29395;227;63009;-55
2023/04/27 00:24:12;;;;;;;0.60;0.60;;;;;;;7.48;59.70;96907.94;29395;323;63005;-55
2023/04/27 00:24:45;;;;;;;0.50;0.50;;;;;;;7.48;59.10;96902.53;29395;198;63009;-54
2023/04/27 00:25:16;;;;;;;0.50;0.50;;;;;;;7.48;59.17;96903.34;29395;263;63005;-55
2023/04/27 00:25:47;;;;;;;0.50;0.50;;;;;;;7.50;58.70;96900.38;29395;232;63024;-55
2023/04/27 00:26:20;;;;;;;0.50;0.50;;;;;;;7.51;58.40;96899.28;29395;202;63005;-55
2023/04/27 00:26:51;;;;;;;0.50;0.50;;;;;;;7.52;58.09;96892.81;29395;299;63009;-54
2023/04/27 00:27:23;;;;;;;0.50;0.50;;;;;;;7.52;58.40;96892.81;29395;264;63011;-55
2023/04/27 00:27:55;;;;;;;0.50;0.50;;;;;;;7.52;58.11;96899.00;29394;202;64013;-55
2023/04/27 00:28:28;;;;;;;0.50;0.50;;;;;;;7.52;58.14;96893.63;29395;272;63004;-54
2023/04/27 00:29:00;;;;;;;0.50;0.50;;;;;;;7.51;58.36;96894.69;29395;279;63009;-55
2023/04/27 00:29:31;;;;;;;0.50;0.50;;;;;;;7.49;60.96;96909.53;29395;268;63004;-55
2023/04/27 00:30:04;;;;;;;0.50;0.50;;;;;;;7.45;62.78;96924.66;29395;234;63008;-55
2023/04/27 00:30:39;;;;;;;0.50;0.50;;;;;;;7.39;62.94;96927.38;29395;239;63005;-55
2023/04/27 00:31:11;;;;;;;0.50;0.50;;;;;;;7.37;62.83;96926.00;29395;205;63009;-58
2023/04/27 00:31:43;;;;;;;0.50;0.50;;;;;;;7.35;62.22;96912.78;29395;200;63005;-55
2023/04/27 00:32:14;;;;;;;0.50;0.50;;;;;;;7.35;61.85;96920.88;29395;265;63009;-54
2023/04/27 00:32:45;;;;;;;0.50;0.50;;;;;;;7.35;62.26;96920.88;29395;226;63005;-55
2023/04/27 00:33:16;;;;;;;0.50;0.50;;;;;;;7.35;62.47;96917.38;29394;214;64013;-55
2023/04/27 00:33:48;;;;;;;0.50;0.50;;;;;;;7.33;61.92;96917.66;29395;299;63005;-55
2023/04/27 00:34:19;;;;;;;0.50;0.50;;;;;;;7.33;61.96;96916.84;29395;320;63009;-55
2023/04/27 00:34:50;;;;;;;0.50;0.50;;;;;;;7.33;62.04;96914.13;29395;333;63012;-54
2023/04/27 00:35:25;;;;;;;0.50;0.50;;;;;;;7.32;61.77;96915.22;29395;214;63009;-55
2023/04/27 00:36:00;;;;;;;0.50;0.50;;;;;;;7.31;62.52;96919.00;29395;265;63010;-55
2023/04/27 00:36:34;;;;;;;0.50;0.50;;;;;;;7.30;62.55;96918.19;29395;260;63009;-56
2023/04/27 00:37:05;;;;;;;0.57;0.57;;;;;;;7.29;62.56;96916.56;29395;214;63004;-54
2023/04/27 00:37:36;;;;;;;0.50;0.50;;;;;;;7.28;62.31;96919.53;29395;212;63008;-55
2023/04/27 00:38:07;;;;;;;0.50;0.50;;;;;;;7.27;62.39;96913.34;29395;213;63005;-55
2023/04/27 00:38:39;;;;;;;0.50;0.50;;;;;;;7.27;62.40;96917.94;29394;323;64014;-55
2023/04/27 00:39:13;;;;;;;0.50;0.50;;;;;;;7.26;62.35;96917.13;29395;205;63005;-54
2023/04/27 00:39:45;;;;;;;0.50;0.50;;;;;;;7.26;62.26;96917.13;29395;242;63009;-54
2023/04/27 00:40:16;;;;;;;0.50;0.50;;;;;;;7.26;62.39;96911.75;29395;241;63008;-55
2023/04/27 00:40:47;;;;;;;0.50;0.50;;;;;;;7.26;61.96;96909.03;29395;301;63009;-55
2023/04/27 00:41:19;;;;;;;0.50;0.50;;;;;;;7.27;62.15;96912.56;29395;263;63000;-55
2023/04/27 00:41:51;;;;;;;0.50;0.50;;;;;;;7.25;61.87;96910.12;29395;219;63009;-55
2023/04/27 00:42:23;;;;;;;0.50;0.50;;;;;;;7.27;61.89;96909.84;29395;230;63004;-55
2023/04/27 00:42:55;;;;;;;0.50;0.50;;;;;;;7.27;62.13;96907.97;29395;220;63009;-55
2023/04/27 00:43:27;;;;;;;0.50;0.50;;;;;;;7.27;61.79;96901.75;29395;203;63004;-54
2023/04/27 00:43:58;;;;;;;0.50;0.50;;;;;;;7.27;62.07;96899.87;29394;234;64030;-55
2023/04/27 00:44:30;;;;;;;0.50;0.50;;;;;;;7.27;61.77;96897.16;29395;196;63004;-54
2023/04/27 00:45:04;;;;;;;0.50;0.50;;;;;;;7.28;62.00;96904.16;29395;218;63008;-55
2023/04/27 00:45:44;;;;;;;0.50;0.50;;;;;;;7.28;61.97;96901.44;29395;225;63005;-56
2023/04/27 00:46:18;;;;;;;0.50;0.50;;;;;;;7.29;62.18;96904.97;29395;202;63009;-55
2023/04/27 00:46:50;;;;;;;0.50;0.50;;;;;;;7.29;61.68;96899.56;29395;212;63005;-54
2023/04/27 00:47:21;;;;;;;0.50;0.50;;;;;;;7.28;61.74;96897.94;29395;202;63009;-55
2023/04/27 00:47:53;;;;;;;0.50;0.50;;;;;;;7.29;61.74;96904.97;29395;310;63008;-55
2023/04/27 00:48:25;;;;;;;0.50;0.50;;;;;;;7.29;61.63;96905.78;29395;344;63009;-55
2023/04/27 00:48:57;;;;;;;0.50;0.50;;;;;;;7.28;61.48;96898.75;29395;267;63005;-55
2023/04/27 00:49:30;;;;;;;0.50;0.50;;;;;;;7.27;61.31;96907.97;29394;210;64000;-54
2023/04/27 00:50:02;;;;;;;0.50;0.50;;;;;;;7.28;61.52;96901.44;29395;206;63004;-54
2023/04/27 00:50:37;;;;;;;0.50;0.50;;;;;;;7.28;61.56;96896.06;29395;233;63009;-55
2023/04/27 00:51:09;;;;;;;0.50;0.50;;;;;;;7.29;61.56;96896.88;29395;210;63004;-54
2023/04/27 00:51:41;;;;;;;0.50;0.50;;;;;;;7.27;61.49;96896.34;29395;242;63009;-55
2023/04/27 00:52:15;;;;;;;0.50;0.50;;;;;;;7.27;61.35;96893.66;29395;209;63000;-55
2023/04/27 00:52:53;;;;;;;0.50;0.50;;;;;;;7.27;61.67;96897.16;29395;215;63017;-55
2023/04/27 00:53:29;;;;;;;0.50;0.50;;;;;;;7.27;61.48;96894.47;29395;199;63005;-55
2023/04/27 00:54:01;;;;;;;0.50;0.50;;;;;;;7.26;61.77;96898.25;29395;213;63009;-55
2023/04/27 00:54:33;;;;;;;0.50;0.50;;;;;;;7.26;61.73;96894.72;29394;203;64009;-54
2023/04/27 00:55:06;;;;;;;0.50;0.50;;;;;;;7.26;61.74;96898.25;29395;205;63009;-55
2023/04/27 00:55:37;;;;;;;0.50;0.50;;;;;;;7.27;61.73;96896.34;29395;308;63005;-54
2023/04/27 00:56:08;;;;;;;0.50;0.50;;;;;;;7.27;61.86;96893.66;29395;227;63019;-55
2023/04/27 00:56:40;;;;;;;0.50;0.50;;;;;;;7.27;61.62;96891.75;29395;246;63004;-55
2023/04/27 00:57:11;;;;;;;0.50;0.50;;;;;;;7.26;61.67;96898.25;29395;200;63009;-55
2023/04/27 00:57:45;;;;;;;0.50;0.50;;;;;;;7.27;61.28;96894.47;29395;250;63004;-55
2023/04/27 00:58:17;;;;;;;0.50;0.50;;;;;;;7.27;61.11;96886.38;29395;235;63009;-55
2023/04/27 00:58:49;;;;;;;0.50;0.50;;;;;;;7.29;60.76;96894.16;29395;197;63004;-55
2023/04/27 00:59:21;;;;;;;0.50;0.50;;;;;;;7.28;60.68;96887.97;29394;270;64013;-55
2023/04/27 00:59:53;;;;;;;0.50;0.50;;;;;;;7.30;60.46;96883.09;29395;233;63009;-54
2023/04/27 01:00:24;;;;;;;0.50;0.50;;;;;;;7.30;60.41;96885.78;29395;222;63009;-55
2023/04/27 01:00:55;;;;;;;0.50;0.50;;;;;;;7.31;60.28;96882.03;29395;197;63005;-55
2023/04/27 01:01:29;;;;;;;0.50;0.50;;;;;;;7.33;60.31;96887.97;29395;235;63013;-55
2023/04/27 01:02:01;;;;;;;0.50;0.50;;;;;;;7.34;60.02;96886.06;29395;207;63005;-55
2023/04/27 01:02:36;;;;;;;0.50;0.50;;;;;;;7.35;60.26;96888.50;29395;199;63009;-54
2023/04/27 01:03:08;;;;;;;0.50;0.50;;;;;;;7.35;60.01;96888.50;29395;200;63005;-55
2023/04/27 01:03:40;;;;;;;0.50;0.50;;;;;;;7.37;60.18;96890.94;29395;203;63009;-55
2023/04/27 01:04:12;;;;;;;0.50;0.50;;;;;;;7.37;59.89;96891.72;29395;215;63004;-55
2023/04/27 01:04:44;;;;;;;0.50;0.50;;;;;;;7.38;59.88;96892.53;29394;210;64013;-55
2023/04/27 01:05:15;;;;;;;0.50;0.50;;;;;;;7.38;59.72;96893.34;29395;300;63004;-55
2023/04/27 01:05:47;;;;;;;0.50;0.50;;;;;;;7.38;59.79;96887.94;29395;206;63009;-56
2023/04/27 01:06:18;;;;;;;0.50;0.50;;;;;;;7.39;59.67;96891.47;29395;291;63004;-56
2023/04/27 01:06:50;;;;;;;0.50;0.50;;;;;;;7.38;59.94;96882.56;29395;236;63008;-55
2023/04/27 01:07:25;;;;;;;0.50;0.50;;;;;;;7.39;59.94;96894.97;29394;199;64009;-55
2023/04/27 01:07:56;;;;;;;0.50;0.50;;;;;;;7.39;59.95;96889.56;29395;220;63009;-55
2023/04/27 01:08:28;;;;;;;0.50;0.50;;;;;;;7.39;59.70;96894.16;29395;218;63005;-55
2023/04/27 01:08:59;;;;;;;0.50;0.50;;;;;;;7.39;59.89;96884.19;29395;241;63009;-54
2023/04/27 01:09:34;;;;;;;0.50;0.50;;;;;;;7.39;59.55;96889.56;29394;216;64005;-55
2023/04/27 01:10:07;;;;;;;0.50;0.50;;;;;;;7.38;59.78;96882.56;29394;198;64009;-55
2023/04/27 01:10:38;;;;;;;0.50;0.50;;;;;;;7.37;59.86;96886.34;29395;227;63005;-54
2023/04/27 01:11:12;;;;;;;0.50;0.50;;;;;;;7.38;59.85;96887.94;29394;199;64013;-60
2023/04/27 01:11:44;;;;;;;0.50;0.50;;;;;;;7.39;59.82;96888.75;29395;210;63010;-55
2023/04/27 01:12:17;;;;;;;0.50;0.50;;;;;;;7.39;60.22;96891.47;29395;279;63009;-55
2023/04/27 01:12:48;;;;;;;0.50;0.50;;;;;;;7.38;60.15;96889.84;29395;218;63004;-55
2023/04/27 01:13:20;;;;;;;0.50;0.50;;;;;;;7.37;60.65;96889.03;29395;212;63009;-55
2023/04/27 01:13:52;;;;;;;0.50;0.50;;;;;;;7.36;60.90;96900.91;29395;218;63004;-55
2023/04/27 01:14:25;;;;;;;0.50;0.50;;;;;;;7.33;61.51;96896.06;29395;232;63008;-55
2023/04/27 01:14:57;;;;;;;0.50;0.50;;;;;;;7.34;61.57;96902.25;29395;256;63018;-55
2023/04/27 01:15:29;;;;;;;0.50;0.50;;;;;;;7.30;61.63;96902.00;29395;200;63009;-54
2023/04/27 01:16:00;;;;;;;0.50;0.50;;;;;;;7.29;61.47;96894.97;29395;208;63005;-55
2023/04/27 01:16:33;;;;;;;0.57;0.57;;;;;;;7.29;61.57;96905.78;29394;206;64013;-55
2023/04/27 01:17:04;;;;;;;0.50;0.50;;;;;;;7.29;61.78;96899.56;29395;232;63005;-55
2023/04/27 01:17:36;;;;;;;0.50;0.50;;;;;;;7.28;62.03;96900.66;29395;199;63009;-55
2023/04/27 01:18:07;;;;;;;0.50;0.50;;;;;;;7.27;62.00;96902.56;29395;207;63005;-55
2023/04/27 01:18:39;;;;;;;0.50;0.50;;;;;;;7.27;61.83;96896.34;29395;234;63012;-59
2023/04/27 01:19:11;;;;;;;0.50;0.50;;;;;;;7.25;62.11;96899.31;29395;218;63004;-55
2023/04/27 01:19:43;;;;;;;0.50;0.50;;;;;;;7.25;62.06;96899.31;29395;249;63009;-55
2023/04/27 01:20:15;;;;;;;0.50;0.50;;;;;;;7.25;62.03;96898.50;29395;203;63004;-54
2023/04/27 01:20:46;;;;;;;0.50;0.50;;;;;;;7.24;62.21;96905.00;29395;228;63009;-55
2023/04/27 01:21:18;;;;;;;0.50;0.50;;;;;;;7.24;62.44;96907.69;29395;233;63004;-55
2023/04/27 01:21:49;;;;;;;0.50;0.50;;;;;;;7.23;62.55;96901.47;29394;213;64013;-55
2023/04/27 01:22:21;;;;;;;0.50;0.50;;;;;;;7.22;62.34;96905.25;29395;230;63005;-54
2023/04/27 01:22:53;;;;;;;0.50;0.50;;;;;;;7.23;62.78;96906.87;29395;226;63009;-55
2023/04/27 01:23:24;;;;;;;0.50;0.50;;;;;;;7.23;62.66;96906.87;29395;271;63005;-54
2023/04/27 01:23:55;;;;;;;0.50;0.50;;;;;;;7.22;62.82;96905.25;29395;212;63009;-54
2023/04/27 01:24:27;;;;;;;0.50;0.50;;;;;;;7.21;63.67;96909.03;29395;249;63005;-54
2023/04/27 01:24:58;;;;;;;0.55;0.55;;;;;;;7.19;63.51;96911.19;29395;197;63009;-55
2023/04/27 01:25:29;;;;;;;0.50;0.50;;;;;;;7.18;63.48;96914.16;29395;210;63005;-60
2023/04/27 01:26:00;;;;;;;0.50;0.50;;;;;;;7.16;63.32;96916.31;29394;300;64013;-55
2023/04/27 01:26:32;;;;;;;0.50;0.50;;;;;;;7.14;63.89;96913.91;29395;205;63004;-54
2023/04/27 01:27:04;;;;;;;0.50;0.50;;;;;;;7.14;63.41;96913.09;29395;254;63009;-55
2023/04/27 01:27:35;;;;;;;0.50;0.50;;;;;;;7.12;63.82;96910.66;29394;363;64009;-55
2023/04/27 01:28:10;;;;;;;0.50;0.50;;;;;;;7.12;64.16;96913.34;29395;204;63009;-61
2023/04/27 01:28:42;;;;;;;0.50;0.50;;;;;;;7.10;63.86;96923.59;29395;224;63004;-54
2023/04/27 01:29:14;;;;;;;0.50;0.50;;;;;;;7.09;64.11;96919.28;29395;207;63008;-60
2023/04/27 01:29:46;;;;;;;0.50;0.50;;;;;;;7.08;64.08;96920.38;29395;206;63005;-55
2023/04/27 01:30:18;;;;;;;0.50;0.50;;;;;;;7.07;64.16;96914.16;29395;317;63009;-55
2023/04/27 01:30:49;;;;;;;0.50;0.50;;;;;;;7.07;64.29;96911.47;29395;205;63009;-56
2023/04/27 01:31:20;;;;;;;0.50;0.50;;;;;;;7.07;64.40;96918.75;29395;208;63009;-53
2023/04/27 01:31:51;;;;;;;0.50;0.50;;;;;;;7.06;64.31;96912.53;29395;252;63005;-54
2023/04/27 01:32:23;;;;;;;0.50;0.50;;;;;;;7.06;64.29;96912.53;29395;214;63009;-56
2023/04/27 01:32:55;;;;;;;0.60;0.60;;;;;;;7.08;64.37;96912.28;29394;218;64010;-53
2023/04/27 01:33:26;;;;;;;0.50;0.50;;;;;;;7.08;64.13;96914.97;29395;286;63009;-54
2023/04/27 01:33:58;;;;;;;0.50;0.50;;;;;;;7.07;65.00;96918.75;29395;235;63004;-54
2023/04/27 01:34:29;;;;;;;0.50;0.50;;;;;;;7.05;64.62;96918.19;29394;209;64009;-54
2023/04/27 01:35:00;;;;;;;0.50;0.50;;;;;;;7.04;64.82;96920.09;29395;215;63004;-54
2023/04/27 01:35:32;;;;;;;0.50;0.50;;;;;;;7.03;64.71;96917.66;29395;267;63009;-53
2023/04/27 01:36:07;;;;;;;0.50;0.50;;;;;;;7.02;64.48;96919.53;29395;221;63004;-54
2023/04/27 01:36:39;;;;;;;0.50;0.50;;;;;;;7.02;64.41;96916.03;29395;295;63008;-55
2023/04/27 01:37:10;;;;;;;0.50;0.50;;;;;;;7.01;64.71;96919.81;29395;341;63004;-55
2023/04/27 01:37:42;;;;;;;0.50;0.50;;;;;;;7.01;64.34;96914.41;29395;197;63009;-55
2023/04/27 01:38:13;;;;;;;0.50;0.50;;;;;;;7.01;64.38;96917.94;29394;310;64009;-56
2023/04/27 01:38:44;;;;;;;0.50;0.50;;;;;;;7.02;64.37;96918.72;29395;214;63009;-55
2023/04/27 01:39:16;;;;;;;0.50;0.50;;;;;;;6.99;63.95;96908.47;29395;213;63005;-55
2023/04/27 01:39:48;;;;;;;0.50;0.50;;;;;;;7.03;64.12;96914.97;29395;231;63009;-55
2023/04/27 01:40:19;;;;;;;0.50;0.50;;;;;;;7.01;64.01;96909.03;29395;241;63005;-60
2023/04/27 01:40:54;;;;;;;0.50;0.50;;;;;;;7.01;64.07;96906.31;29395;197;63009;-56
2023/04/27 01:41:25;;;;;;;0.60;0.60;;;;;;;7.00;65.03;96918.19;29395;221;63009;-55
2023/04/27 01:41:56;;;;;;;0.50;0.50;;;;;;;6.98;65.23;96913.06;29395;206;63009;-55
2023/04/27 01:42:27;;;;;;;0.50;0.50;;;;;;;6.98;65.01;96914.94;29395;236;63004;-55
2023/04/27 01:42:59;;;;;;;0.50;0.50;;;;;;;6.97;65.74;96918.72;29395;220;63009;-56
2023/04/27 01:43:31;;;;;;;0.50;0.50;;;;;;;6.97;65.72;96921.44;29394;216;64009;-55
2023/04/27 01:44:03;;;;;;;0.50;0.50;;;;;;;6.94;66.42;96916.56;29395;212;63008;-55
2023/04/27 01:44:34;;;;;;;0.50;0.50;;;;;;;6.93;65.97;96918.44;29395;340;63004;-55
2023/04/27 01:45:07;;;;;;;0.50;0.50;;;;;;;6.92;66.32;96913.34;29395;206;63005;-55
2023/04/27 01:45:40;;;;;;;0.50;0.50;;;;;;;6.92;66.62;96921.44;29394;237;64009;-55
2023/04/27 01:46:14;;;;;;;0.50;0.50;;;;;;;6.90;66.54;96912.81;29395;202;63009;-55
2023/04/27 01:46:46;;;;;;;0.50;0.50;;;;;;;6.88;65.97;96917.66;29395;211;63005;-55
2023/04/27 01:47:17;;;;;;;0.50;0.50;;;;;;;6.87;65.92;96911.47;29395;269;63009;-55
2023/04/27 01:47:52;;;;;;;0.50;0.50;;;;;;;6.87;65.33;96913.34;29395;238;63005;-55
2023/04/27 01:48:23;;;;;;;0.50;0.50;;;;;;;6.89;65.46;96911.19;29395;269;63009;-55
2023/04/27 01:48:55;;;;;;;0.50;0.50;;;;;;;6.88;65.22;96914.97;29395;269;63005;-57
2023/04/27 01:49:27;;;;;;;0.50;0.50;;;;;;;6.89;65.07;96911.19;29395;228;63009;-55
2023/04/27 01:49:59;;;;;;;0.50;0.50;;;;;;;6.87;64.96;96908.75;29395;292;63004;-55
2023/04/27 01:50:30;;;;;;;0.50;0.50;;;;;;;6.90;64.97;96912.81;29395;291;63009;-55
2023/04/27 01:51:02;;;;;;;0.50;0.50;;;;;;;6.91;64.68;96903.66;29394;236;64009;-55
2023/04/27 01:51:33;;;;;;;0.50;0.50;;;;;;;6.92;64.48;96899.87;29395;202;63008;-55
2023/04/27 01:52:08;;;;;;;0.50;0.50;;;;;;;6.92;64.16;96908.78;29395;237;63004;-55
2023/04/27 01:52:39;;;;;;;0.50;0.50;;;;;;;6.91;64.10;96909.03;29394;372;64014;-54
2023/04/27 01:53:11;;;;;;;0.50;0.50;;;;;;;6.91;63.88;96909.03;29395;272;63005;-55
2023/04/27 01:53:42;;;;;;;0.50;0.50;;;;;;;6.91;64.07;96909.03;29395;237;63009;-56
2023/04/27 01:54:13;;;;;;;0.50;0.50;;;;;;;6.92;64.25;96907.97;29395;221;63005;-55
2023/04/27 01:54:45;;;;;;;0.50;0.50;;;;;;;6.93;64.05;96904.97;29395;202;63009;-56
2023/04/27 01:55:16;;;;;;;0.50;0.50;;;;;;;6.94;63.77;96906.59;29395;206;63005;-55
2023/04/27 01:55:48;;;;;;;0.50;0.50;;;;;;;6.94;64.02;96905.78;29395;261;63009;-55
2023/04/27 01:56:19;;;;;;;0.50;0.50;;;;;;;6.96;63.93;96911.72;29395;216;63005;-61
2023/04/27 01:56:50;;;;;;;0.50;0.50;;;;;;;6.96;63.99;96912.53;29396;210;63004;-55
2023/04/27 01:57:22;;;;;;;0.50;0.50;;;;;;;6.96;63.90;96911.72;29396;197;63012;-56
2023/04/27 01:57:54;;;;;;;0.50;0.50;;;;;;;6.96;63.62;96906.31;29395;214;64013;-56
2023/04/27 01:58:26;;;;;;;0.50;0.50;;;;;;;6.95;63.54;96907.41;29396;203;63004;-57
2023/04/27 01:58:58;;;;;;;0.50;0.50;;;;;;;6.98;63.69;96906.87;29396;240;63009;-56
2023/04/27 01:59:29;;;;;;;0.50;0.50;;;;;;;6.98;63.90;96910.38;29396;264;63004;-62
2023/04/27 02:00:03;;;;;;;0.50;0.50;;;;;;;6.97;63.90;96918.72;29396;202;63009;-55
2023/04/27 02:00:35;;;;;;;0.50;0.50;;;;;;;6.95;64.12;96916.31;29396;197;63005;-55
2023/04/27 02:01:06;;;;;;;0.60;0.60;;;;;;;6.93;64.49;96918.44;29396;210;63009;-56
2023/04/27 02:01:37;;;;;;;0.50;0.50;;;;;;;6.92;64.09;96916.06;29396;222;63005;-55
2023/04/27 02:02:09;;;;;;;0.50;0.50;;;;;;;6.91;64.17;96922.53;29396;211;63016;-55
2023/04/27 02:02:40;;;;;;;0.50;0.50;;;;;;;6.89;63.87;96912.00;29396;216;63005;-55
2023/04/27 02:03:11;;;;;;;0.50;0.50;;;;;;;6.90;63.81;96918.22;29395;221;64013;-55
2023/04/27 02:03:42;;;;;;;0.50;0.50;;;;;;;6.89;64.10;96916.59;29396;265;63004;-54
2023/04/27 02:04:14;;;;;;;0.50;0.50;;;;;;;6.88;64.26;96912.28;29396;247;63009;-55
2023/04/27 02:04:45;;;;;;;0.50;0.50;;;;;;;6.88;64.25;96909.56;29396;202;63004;-55
2023/04/27 02:05:17;;;;;;;0.50;0.50;;;;;;;6.86;64.62;96917.13;29396;202;63009;-55
2023/04/27 02:05:48;;;;;;;0.50;0.50;;;;;;;6.85;64.48;96916.31;29396;196;63004;-61
2023/04/27 02:06:19;;;;;;;0.50;0.50;;;;;;;6.85;64.40;96915.50;29396;283;63014;-56
2023/04/27 02:06:50;;;;;;;0.50;0.50;;;;;;;6.85;64.22;96913.63;29396;255;63004;-55
2023/04/27 02:07:22;;;;;;;0.50;0.50;;;;;;;6.84;64.86;96913.87;29396;222;63008;-55
2023/04/27 02:07:54;;;;;;;0.50;0.50;;;;;;;6.83;64.37;96912.25;29396;197;63005;-56
2023/04/27 02:08:25;;;;;;;0.50;0.50;;;;;;;6.82;64.38;96916.03;29395;219;64013;-55
2023/04/27 02:08:57;;;;;;;0.50;0.50;;;;;;;6.80;64.59;96919.00;29396;297;63005;-55
2023/04/27 02:09:31;;;;;;;0.50;0.50;;;;;;;6.80;64.45;96919.00;29396;241;63009;-54
2023/04/27 02:10:06;;;;;;;0.50;0.50;;;;;;;6.80;64.68;96912.78;29396;256;63019;-55
2023/04/27 02:10:37;;;;;;;0.50;0.50;;;;;;;6.78;65.99;96925.72;29396;251;63009;-55
2023/04/27 02:11:09;;;;;;;0.50;0.50;;;;;;;6.77;66.34;96924.13;29396;212;63004;-54
2023/04/27 02:11:40;;;;;;;0.50;0.50;;;;;;;6.75;66.26;96931.66;29396;371;63009;-55
2023/04/27 02:12:11;;;;;;;0.50;0.50;;;;;;;6.73;66.91;96935.44;29396;230;63004;-54
2023/04/27 02:12:42;;;;;;;0.50;0.50;;;;;;;6.71;67.14;96934.06;29396;248;63014;-55
2023/04/27 02:13:14;;;;;;;0.50;0.50;;;;;;;6.69;67.45;96928.13;29395;196;64009;-55
2023/04/27 02:13:45;;;;;;;0.50;0.50;;;;;;;6.67;67.46;96935.69;29396;199;63008;-56
2023/04/27 02:14:16;;;;;;;0.50;0.50;;;;;;;6.67;67.51;96944.59;29396;197;63005;-55
2023/04/27 02:14:47;;;;;;;0.50;0.50;;;;;;;6.65;67.16;96935.94;29396;197;63014;-55
2023/04/27 02:15:19;;;;;;;0.50;0.50;;;;;;;6.64;67.17;96942.41;29396;197;63001;-59
2023/04/27 02:15:51;;;;;;;0.50;0.50;;;;;;;6.63;67.83;96940.78;29396;220;63009;-55
2023/04/27 02:16:22;;;;;;;0.50;0.50;;;;;;;6.62;69.96;96949.97;29396;213;63005;-55
2023/04/27 02:16:53;;;;;;;0.50;0.50;;;;;;;6.61;69.06;96953.72;29396;198;63015;-54
2023/04/27 02:17:25;;;;;;;0.50;0.50;;;;;;;6.59;68.27;96950.50;29396;283;63005;-54
2023/04/27 02:17:57;;;;;;;0.50;0.50;;;;;;;6.58;68.52;96943.50;29396;284;63009;-55
2023/04/27 02:18:28;;;;;;;0.50;0.50;;;;;;;6.56;68.10;96940.25;29395;218;64009;-55
2023/04/27 02:18:59;;;;;;;0.50;0.50;;;;;;;6.55;68.05;96948.62;29396;234;63009;-55
2023/04/27 02:19:31;;;;;;;0.50;0.50;;;;;;;6.53;68.29;96951.56;29396;244;63004;-56
2023/04/27 02:20:05;;;;;;;0.50;0.50;;;;;;;6.51;67.96;96942.94;29396;250;63009;-55
2023/04/27 02:20:37;;;;;;;0.50;0.50;;;;;;;6.52;67.62;96944.56;29396;216;63015;-54
2023/04/27 02:21:10;;;;;;;0.73;0.73;;;;;;;6.52;68.41;96949.97;29396;210;63008;-55
2023/04/27 02:21:42;;;;;;;0.50;0.50;;;;;;;6.51;68.75;96947.53;29396;214;63004;-55
2023/04/27 02:22:13;;;;;;;0.50;0.50;;;;;;;6.50;69.27;96956.69;29396;271;63019;-55
2023/04/27 02:22:44;;;;;;;0.50;0.50;;;;;;;6.45;70.51;96953.97;29396;230;63005;-59
2023/04/27 02:23:15;;;;;;;0.50;0.50;;;;;;;6.43;70.14;96953.41;29396;197;63009;-55
2023/04/27 02:23:48;;;;;;;0.50;0.50;;;;;;;6.41;70.64;96959.06;29395;214;64009;-55
2023/04/27 02:24:20;;;;;;;0.50;0.50;;;;;;;6.40;69.67;96952.06;29396;262;63009;-54
2023/04/27 02:24:51;;;;;;;0.60;0.60;;;;;;;6.40;70.79;96952.06;29396;278;63005;-55
2023/04/27 02:25:27;;;;;;;0.50;0.50;;;;;;;6.39;70.37;96955.81;29396;203;63009;-61
2023/04/27 02:25:59;;;;;;;0.50;0.50;;;;;;;6.39;69.67;96945.06;29396;310;63004;-54
2023/04/27 02:26:31;;;;;;;0.50;0.50;;;;;;;6.40;69.43;96952.06;29396;197;63009;-55
2023/04/27 02:27:02;;;;;;;0.50;0.50;;;;;;;6.42;69.26;96949.91;29396;204;63004;-54
2023/04/27 02:27:39;;;;;;;0.50;0.50;;;;;;;6.44;69.40;96946.97;29396;267;63016;-55
2023/04/27 02:28:16;;;;;;;0.50;0.50;;;;;;;6.45;69.66;96954.78;29396;202;63004;-55
2023/04/27 02:28:51;;;;;;;0.50;0.50;;;;;;;6.45;70.01;96949.38;29395;211;64013;-55
2023/04/27 02:29:22;;;;;;;0.50;0.50;;;;;;;6.44;69.73;96947.75;29396;300;63005;-55
2023/04/27 02:29:54;;;;;;;0.50;0.50;;;;;;;6.43;69.51;96948.84;29396;342;63009;-55
2023/04/27 02:30:25;;;;;;;0.50;0.50;;;;;;;6.42;69.69;96944.53;29396;205;63005;-54
2023/04/27 02:30:56;;;;;;;0.50;0.50;;;;;;;6.43;69.31;96945.34;29396;276;63009;-56
2023/04/27 02:31:27;;;;;;;0.50;0.50;;;;;;;6.43;69.44;96946.16;29396;207;63005;-54
2023/04/27 02:31:59;;;;;;;0.50;0.50;;;;;;;6.43;69.73;96946.16;29396;248;63009;-59
2023/04/27 02:32:31;;;;;;;0.50;0.50;;;;;;;6.44;69.54;96950.47;29395;240;64009;-55
2023/04/27 02:33:03;;;;;;;0.50;0.50;;;;;;;6.43;69.69;96954.22;29396;218;63009;-55
2023/04/27 02:33:35;;;;;;;0.50;0.50;;;;;;;6.42;69.92;96951.78;29395;198;64009;-55
2023/04/27 02:34:06;;;;;;;0.50;0.50;;;;;;;6.39;69.92;96955.81;29396;198;63017;-55
2023/04/27 02:34:41;;;;;;;0.50;0.50;;;;;;;6.37;69.68;96942.63;29396;198;63000;-59